Time;durP1;ratioP1;P1;durP2;ratioP2;P2;SDS_P1;SDS_P2;PMS_P1;PMS_P2;Temp;Humidity;BMP_temperature;BMP_pressure;BME280_temperature;BME280_humidity;BME280_pressure;Samples;Min_cycle;Max_cycle;Signal;HPM_P1;HPM_P2
2021/07/02 00:00:32;;;;;;;48.97;26.27;;;14.30;92.50;;;;;;5095587;28;20028;-37
2021/07/02 00:02:59;;;;;;;55.38;27.33;;;14.50;92.10;;;;;;5095362;28;20036;-37
2021/07/02 00:05:25;;;;;;;55.78;30.27;;;14.50;91.90;;;;;;5095073;28;20032;-37
2021/07/02 00:07:50;;;;;;;51.38;25.38;;;14.50;91.70;;;;;;5095438;28;20103;-38
2021/07/02 00:10:16;;;;;;;60.72;25.23;;;14.40;92.20;;;;;;5095065;28;20024;-37
2021/07/02 00:12:42;;;;;;;59.00;29.33;;;14.50;92.60;;;;;;5095382;28;20074;-38
2021/07/02 00:15:08;;;;;;;60.67;27.55;;;14.60;92.10;;;;;;5095361;28;20103;-37
2021/07/02 00:17:34;;;;;;;49.10;26.40;;;14.60;91.90;;;;;;5095672;28;20035;-37
2021/07/02 00:19:59;;;;;;;57.78;28.75;;;14.50;92.20;;;;;;5095236;28;20020;-37
2021/07/02 00:22:25;;;;;;;57.05;28.88;;;14.50;92.70;;;;;;5095239;28;20028;-37
2021/07/02 00:24:51;;;;;;;57.67;28.92;;;14.70;91.80;;;;;;5095847;28;20020;-37
2021/07/02 00:27:17;;;;;;;57.58;30.10;;;14.70;91.50;;;;;;5095452;28;20073;-37
2021/07/02 00:29:42;;;;;;;60.75;31.13;;;14.70;91.30;;;;;;5076773;28;20050;-37
2021/07/02 00:32:08;;;;;;;66.38;28.83;;;14.60;91.70;;;;;;5094831;28;20032;-48
2021/07/02 00:34:34;;;;;;;54.15;27.48;;;14.50;92.40;;;;;;5094575;28;20117;-49
2021/07/02 00:37:00;;;;;;;54.17;28.92;;;14.50;92.70;;;;;;5094805;28;20103;-48
2021/07/02 00:39:25;;;;;;;57.55;29.70;;;14.40;92.80;;;;;;5094808;28;20032;-50
2021/07/02 00:41:51;;;;;;;52.55;30.98;;;14.50;92.80;;;;;;5094545;28;20357;-48
2021/07/02 00:44:16;;;;;;;61.20;31.50;;;14.30;92.70;;;;;;5094616;28;20404;-53
2021/07/02 00:46:42;;;;;;;58.97;29.60;;;14.30;93.20;;;;;;5094443;28;20024;-47
2021/07/02 00:49:09;;;;;;;58.05;30.52;;;14.30;93.70;;;;;;5094882;28;20526;-47
2021/07/02 00:51:35;;;;;;;48.63;28.63;;;14.50;93.10;;;;;;5076940;28;20032;-49
2021/07/02 00:54:01;;;;;;;62.47;29.98;;;14.50;92.60;;;;;;5094562;28;20479;-50
2021/07/02 00:56:29;;;;;;;60.83;31.48;;;14.50;92.40;;;;;;5094677;28;20088;-52
2021/07/02 00:58:55;;;;;;;55.63;30.70;;;14.60;92.10;;;;;;5094624;28;20540;-48
2021/07/02 01:01:21;;;;;;;52.38;27.50;;;14.50;92.20;;;;;;5076015;28;20123;-49
2021/07/02 01:03:50;;;;;;;55.63;29.42;;;14.50;92.20;;;;;;5094291;28;20138;-47
2021/07/02 01:06:16;;;;;;;56.47;28.98;;;14.50;92.10;;;;;;5094514;28;20052;-49
2021/07/02 01:08:43;;;;;;;54.00;27.80;;;14.30;92.60;;;;;;5075900;28;20028;-48
2021/07/02 01:11:11;;;;;;;47.65;27.23;;;14.30;93.20;;;;;;5094358;28;20035;-48
2021/07/02 01:13:37;;;;;;;47.38;25.90;;;14.30;93.10;;;;;;5094482;28;20043;-50
2021/07/02 01:16:03;;;;;;;50.30;27.20;;;14.30;93.60;;;;;;5094381;28;20074;-49
2021/07/02 01:18:29;;;;;;;67.15;32.85;;;14.30;93.10;;;;;;5094097;28;20094;-49
2021/07/02 01:20:56;;;;;;;59.42;32.35;;;14.50;92.40;;;;;;5093478;28;20020;-47
2021/07/02 01:23:22;;;;;;;62.20;29.38;;;14.60;92.10;;;;;;5075932;28;20055;-47
2021/07/02 01:25:48;;;;;;;56.58;31.45;;;14.50;91.90;;;;;;5093883;28;20491;-47
2021/07/02 01:28:16;;;;;;;61.60;30.08;;;14.50;92.20;;;;;;5093899;28;20046;-48
2021/07/02 01:30:43;;;;;;;69.70;33.55;;;14.50;92.10;;;;;;5093850;28;20020;-49
2021/07/02 01:33:09;;;;;;;57.65;28.35;;;14.50;92.40;;;;;;5093804;28;20123;-49
2021/07/02 01:35:35;;;;;;;58.47;28.40;;;14.40;92.70;;;;;;5093715;28;20032;-50
2021/07/02 01:38:01;;;;;;;55.63;27.40;;;14.40;92.90;;;;;;5093872;28;20130;-49
2021/07/02 01:40:27;;;;;;;48.22;27.10;;;14.40;92.50;;;;;;5093818;28;20032;-48
2021/07/02 01:42:52;;;;;;;61.03;30.45;;;14.60;92.20;;;;;;5093625;28;20056;-47
2021/07/02 01:45:18;;;;;;;55.65;28.30;;;14.60;91.70;;;;;;5095030;28;20020;-47
2021/07/02 01:47:44;;;;;;;49.85;28.38;;;14.60;91.80;;;;;;5093830;28;20023;-48
2021/07/02 01:50:10;;;;;;;53.25;25.15;;;14.40;92.10;;;;;;5093778;28;20077;-47
2021/07/02 01:52:35;;;;;;;54.28;26.65;;;14.30;92.30;;;;;;5093734;28;20503;-46
2021/07/02 01:55:03;;;;;;;61.92;28.23;;;14.30;92.90;;;;;;5093793;28;20024;-46
2021/07/02 01:57:29;;;;;;;55.42;26.52;;;14.30;92.80;;;;;;5075438;28;20024;-46
2021/07/02 01:59:55;;;;;;;49.72;27.42;;;14.30;92.40;;;;;;5093774;28;20490;-52
2021/07/02 02:02:21;;;;;;;46.17;26.27;;;14.40;92.30;;;;;;5093673;28;20067;-49
2021/07/02 02:04:47;;;;;;;55.72;28.67;;;14.40;92.10;;;;;;5093916;28;20055;-47
2021/07/02 02:07:13;;;;;;;60.85;29.65;;;14.40;91.60;;;;;;5093402;28;20036;-47
2021/07/02 02:09:40;;;;;;;58.70;31.00;;;14.50;91.90;;;;;;5093320;28;20028;-49
2021/07/02 02:12:06;;;;;;;50.72;27.20;;;14.60;91.30;;;;;;5093361;28;20027;-52
2021/07/02 02:14:32;;;;;;;51.65;27.70;;;14.50;91.30;;;;;;5093692;28;20032;-52
2021/07/02 02:16:58;;;;;;;58.15;28.77;;;14.40;91.40;;;;;;5093476;28;20417;-52
2021/07/02 02:19:24;;;;;;;61.53;31.10;;;14.30;91.80;;;;;;5093559;28;20028;-47
2021/07/02 02:21:50;;;;;;;60.45;29.00;;;14.40;92.00;;;;;;5075043;28;20039;-52
2021/07/02 02:24:16;;;;;;;59.80;27.25;;;14.50;91.90;;;;;;5093506;28;20021;-51
2021/07/02 02:26:42;;;;;;;59.70;27.65;;;14.40;92.00;;;;;;5092998;28;20032;-48
2021/07/02 02:29:08;;;;;;;65.10;30.15;;;14.60;91.90;;;;;;5093068;28;20024;-49
2021/07/02 02:31:33;;;;;;;58.72;27.88;;;14.50;91.00;;;;;;5093059;28;20024;-48
2021/07/02 02:34:00;;;;;;;47.42;25.48;;;14.50;91.40;;;;;;5095684;28;20097;-47
2021/07/02 02:36:26;;;;;;;54.85;25.48;;;14.50;91.00;;;;;;5096850;28;20017;-48
2021/07/02 02:38:51;;;;;;;51.38;25.42;;;14.30;91.70;;;;;;5097144;28;20081;-48
2021/07/02 02:41:17;;;;;;;57.83;28.25;;;14.30;91.80;;;;;;5096921;28;20031;-51
2021/07/02 02:43:43;;;;;;;62.50;27.65;;;14.30;92.10;;;;;;5096687;28;20025;-52
2021/07/02 02:46:08;;;;;;;56.15;28.33;;;14.50;91.30;;;;;;5096677;28;20107;-52
2021/07/02 02:48:34;;;;;;;55.22;27.20;;;14.50;91.70;;;;;;5096913;28;20028;-51
2021/07/02 02:51:00;;;;;;;62.45;27.02;;;14.40;91.50;;;;;;5096863;28;20052;-51
2021/07/02 02:53:25;;;;;;;53.30;27.48;;;14.50;91.70;;;;;;5097022;28;20023;-51
2021/07/02 02:55:51;;;;;;;57.05;26.35;;;14.60;91.00;;;;;;5078325;28;20020;-47
2021/07/02 02:58:17;;;;;;;53.60;27.48;;;14.50;91.20;;;;;;5096721;28;20022;-48
2021/07/02 03:00:42;;;;;;;58.80;26.63;;;14.50;91.10;;;;;;5096468;28;20024;-50
2021/07/02 03:03:09;;;;;;;48.38;25.67;;;14.50;91.10;;;;;;5078193;28;20508;-47
2021/07/02 03:05:34;;;;;;;51.28;24.67;;;14.30;91.90;;;;;;5078336;28;20475;-48
2021/07/02 03:08:00;;;;;;;51.67;25.88;;;14.50;91.70;;;;;;5096495;28;20074;-50
2021/07/02 03:10:26;;;;;;;56.55;27.98;;;14.40;91.90;;;;;;5096450;28;20089;-47
2021/07/02 03:12:51;;;;;;;49.60;27.13;;;14.60;91.80;;;;;;5096038;28;20107;-48
2021/07/02 03:15:17;;;;;;;54.20;28.48;;;14.60;91.70;;;;;;5096306;28;20025;-50
2021/07/02 03:17:43;;;;;;;52.00;27.08;;;14.50;91.70;;;;;;5096026;28;20376;-48
2021/07/02 03:20:10;;;;;;;58.88;28.75;;;14.50;91.70;;;;;;5096228;28;20032;-49
2021/07/02 03:22:37;;;;;;;65.65;30.25;;;14.50;91.70;;;;;;5077807;28;20032;-48
2021/07/02 03:25:05;;;;;;;56.03;29.15;;;14.50;91.90;;;;;;5095908;28;20077;-50
2021/07/02 03:27:31;;;;;;;58.92;27.70;;;14.60;91.50;;;;;;5078000;28;20024;-52
2021/07/02 03:29:56;;;;;;;55.63;27.98;;;14.60;91.60;;;;;;5095860;28;20472;-48
2021/07/02 03:32:22;;;;;;;60.33;30.58;;;14.50;91.70;;;;;;5095729;28;20036;-48
2021/07/02 03:34:48;;;;;;;56.85;27.33;;;14.50;91.80;;;;;;5095512;28;20063;-52
2021/07/02 03:37:16;;;;;;;55.85;27.05;;;14.30;92.30;;;;;;5095842;28;20052;-49
2021/07/02 03:39:42;;;;;;;50.33;25.58;;;14.30;92.70;;;;;;5095794;28;20476;-47
2021/07/02 03:42:07;;;;;;;63.00;29.65;;;14.20;93.10;;;;;;5095546;28;20032;-47
2021/07/02 03:44:34;;;;;;;57.95;28.23;;;14.30;92.90;;;;;;5060396;28;20046;-48
2021/07/02 03:47:00;;;;;;;53.03;27.45;;;14.30;92.80;;;;;;5095504;28;20126;-48
2021/07/02 03:49:26;;;;;;;62.38;28.92;;;14.30;92.70;;;;;;5077265;28;20047;-48
2021/07/02 03:51:52;;;;;;;49.88;27.98;;;14.30;92.50;;;;;;5095421;28;20059;-46
2021/07/02 03:54:18;;;;;;;55.42;26.77;;;14.20;92.80;;;;;;5095604;28;20074;-48
2021/07/02 03:59:28;;;;;;;50.53;27.55;;;14.30;92.60;;;;;;5096143;28;20423;-48
2021/07/02 04:01:54;;;;;;;45.33;24.55;;;14.40;92.50;;;;;;5095721;28;20535;-51
2021/07/02 04:04:20;;;;;;;47.78;22.88;;;14.50;91.90;;;;;;5095239;28;20032;-48
2021/07/02 04:06:46;;;;;;;46.33;24.38;;;14.30;92.20;;;;;;5095329;28;20417;-49
2021/07/02 04:09:11;;;;;;;49.10;25.08;;;14.30;92.50;;;;;;5095309;28;20031;-49
2021/07/02 04:11:37;;;;;;;57.97;28.08;;;14.50;91.60;;;;;;5095316;28;20016;-50
2021/07/02 04:14:03;;;;;;;59.13;26.55;;;14.50;91.80;;;;;;5095519;28;20042;-50
2021/07/02 04:16:29;;;;;;;53.03;23.77;;;14.50;91.40;;;;;;5095281;28;20035;-54
2021/07/02 04:18:54;;;;;;;44.65;24.55;;;14.40;91.60;;;;;;5094869;28;20035;-50
2021/07/02 04:21:20;;;;;;;41.70;21.60;;;14.30;92.60;;;;;;5076658;28;20070;-52
2021/07/02 04:23:45;;;;;;;48.45;23.65;;;14.30;92.10;;;;;;5076694;28;20048;-49
2021/07/02 04:26:11;;;;;;;52.05;26.80;;;14.50;92.10;;;;;;5094750;28;20077;-48
2021/07/02 04:28:37;;;;;;;50.25;27.90;;;14.70;91.10;;;;;;5095063;28;20020;-47
2021/07/02 04:31:02;;;;;;;56.00;26.95;;;14.70;91.10;;;;;;5093394;28;20042;-48
2021/07/02 04:33:28;;;;;;;52.28;24.58;;;14.80;90.90;;;;;;5094455;28;20051;-47
2021/07/02 04:35:53;;;;;;;48.80;25.25;;;14.80;90.40;;;;;;5094560;28;20032;-48
2021/07/02 04:38:19;;;;;;;49.00;24.67;;;14.80;90.50;;;;;;5076343;28;20467;-49
2021/07/02 04:40:45;;;;;;;48.00;24.13;;;14.80;90.20;;;;;;5094544;28;20055;-48
2021/07/02 04:43:10;;;;;;;40.63;22.65;;;14.60;91.00;;;;;;5076338;28;20062;-49
2021/07/02 04:45:36;;;;;;;42.53;22.92;;;14.80;90.20;;;;;;5095097;28;20044;-50
2021/07/02 04:48:01;;;;;;;48.40;23.50;;;14.80;89.80;;;;;;5094729;28;20028;-49
2021/07/02 04:50:27;;;;;;;43.92;23.05;;;14.90;89.80;;;;;;5094399;28;20024;-52
2021/07/02 04:52:53;;;;;;;42.75;23.02;;;14.90;90.00;;;;;;5094014;28;20024;-51
2021/07/02 04:55:19;;;;;;;48.97;23.08;;;14.80;90.20;;;;;;5093353;28;20028;-52
2021/07/02 04:57:44;;;;;;;50.55;23.92;;;14.90;90.40;;;;;;5094084;28;20028;-51
2021/07/02 05:00:11;;;;;;;51.95;26.02;;;14.90;90.10;;;;;;5094143;28;20024;-48
2021/07/02 05:02:37;;;;;;;47.33;22.58;;;14.80;90.50;;;;;;5094162;28;20032;-47
2021/07/02 05:05:03;;;;;;;42.85;21.60;;;14.80;91.00;;;;;;5093975;28;20119;-48
2021/07/02 05:07:29;;;;;;;42.28;22.38;;;14.80;90.10;;;;;;5093781;28;20031;-48
2021/07/02 05:09:55;;;;;;;55.97;23.35;;;14.70;90.80;;;;;;5094594;28;20016;-48
2021/07/02 05:12:21;;;;;;;50.33;24.02;;;14.80;91.10;;;;;;5094002;28;20056;-47
2021/07/02 05:14:47;;;;;;;42.05;22.13;;;15.10;90.10;;;;;;5093861;28;20077;-47
2021/07/02 05:17:13;;;;;;;43.47;22.02;;;15.10;89.70;;;;;;5094043;28;20337;-47
2021/07/02 05:19:41;;;;;;;45.13;23.52;;;15.10;89.10;;;;;;5094089;28;20020;-49
2021/07/02 05:22:13;;;;;;;50.60;24.42;;;14.70;90.20;;;;;;5075251;28;20026;-47
2021/07/02 05:24:39;;;;;;;40.95;22.15;;;14.60;90.70;;;;;;5093368;28;20022;-47
2021/07/02 05:27:05;;;;;;;44.40;22.35;;;14.50;91.20;;;;;;5093739;28;20305;-47
2021/07/02 05:29:30;;;;;;;45.13;21.75;;;14.40;91.60;;;;;;5093736;28;20114;-46
2021/07/02 05:31:56;;;;;;;46.33;23.40;;;14.40;91.90;;;;;;5093540;28;20026;-46
2021/07/02 05:34:21;;;;;;;51.25;25.00;;;14.40;91.20;;;;;;5092874;28;20071;-47
2021/07/02 05:36:47;;;;;;;48.70;23.38;;;14.60;91.20;;;;;;5093131;28;20434;-47
2021/07/02 05:39:13;;;;;;;53.45;25.80;;;14.80;90.90;;;;;;5093623;28;20020;-46
2021/07/02 05:41:39;;;;;;;39.90;22.77;;;14.80;90.30;;;;;;5093218;28;20054;-47
2021/07/02 05:44:05;;;;;;;43.22;23.65;;;14.70;90.10;;;;;;5092979;28;20020;-47
2021/07/02 05:46:31;;;;;;;57.67;26.80;;;14.50;90.50;;;;;;5075016;28;20038;-50
2021/07/02 05:48:57;;;;;;;53.83;25.33;;;14.60;90.00;;;;;;5092825;28;20422;-46
2021/07/02 05:51:23;;;;;;;65.65;26.05;;;14.60;90.20;;;;;;5093066;28;20035;-48
2021/07/02 05:53:48;;;;;;;56.63;26.45;;;14.60;90.10;;;;;;5074485;28;20465;-48
2021/07/02 05:56:14;;;;;;;46.22;25.00;;;14.60;90.20;;;;;;5074938;28;20024;-47
2021/07/02 05:58:40;;;;;;;55.30;23.88;;;14.60;89.70;;;;;;5092806;28;20062;-48
2021/07/02 06:01:05;;;;;;;58.03;25.20;;;14.60;89.00;;;;;;5092538;28;20028;-49
2021/07/02 06:03:32;;;;;;;49.05;22.20;;;14.70;89.10;;;;;;5092585;28;20376;-47
2021/07/02 06:05:57;;;;;;;42.58;22.30;;;14.90;88.70;;;;;;5074614;28;20024;-46
2021/07/02 06:08:23;;;;;;;50.70;22.38;;;15.10;88.10;;;;;;5096130;28;20012;-48
2021/07/02 06:10:49;;;;;;;52.40;24.70;;;15.30;86.70;;;;;;5096575;28;20364;-48
2021/07/02 06:13:15;;;;;;;39.90;21.77;;;15.30;86.60;;;;;;5096608;28;20482;-52
2021/07/02 06:15:40;;;;;;;42.83;20.08;;;15.30;86.60;;;;;;5096705;28;20108;-47
2021/07/02 06:18:08;;;;;;;37.13;20.35;;;15.30;86.50;;;;;;5078344;28;20053;-50
2021/07/02 06:20:34;;;;;;;46.05;22.42;;;15.30;85.90;;;;;;5096433;28;20114;-47
2021/07/02 06:23:00;;;;;;;45.80;20.50;;;15.30;86.10;;;;;;5096133;28;20024;-47
2021/07/02 06:25:26;;;;;;;48.53;23.80;;;15.70;85.00;;;;;;5078009;28;20028;-48
2021/07/02 06:27:52;;;;;;;54.15;22.65;;;15.80;84.90;;;;;;5096680;28;20103;-48
2021/07/02 06:30:18;;;;;;;35.90;20.15;;;16.00;84.50;;;;;;5077866;28;20135;-51
2021/07/02 06:32:44;;;;;;;37.90;19.92;;;16.30;83.50;;;;;;5096202;28;20024;-49
2021/07/02 06:35:10;;;;;;;42.60;19.40;;;16.40;82.70;;;;;;5057315;28;20059;-53
2021/07/02 06:37:36;;;;;;;33.50;19.38;;;16.40;81.70;;;;;;5055892;28;20469;-47
2021/07/02 06:40:03;;;;;;;42.47;19.13;;;16.10;82.50;;;;;;5054408;28;20028;-52
2021/07/02 06:42:29;;;;;;;34.78;18.27;;;16.00;82.80;;;;;;5055672;28;20445;-48
2021/07/02 06:44:55;;;;;;;35.53;21.15;;;16.20;83.20;;;;;;5055378;28;20104;-48
2021/07/02 06:47:20;;;;;;;48.65;20.90;;;16.40;81.70;;;;;;5055702;28;20522;-47
2021/07/02 06:49:46;;;;;;;44.15;21.27;;;16.30;81.30;;;;;;5055615;28;20017;-48
2021/07/02 06:52:11;;;;;;;36.42;18.30;;;16.30;81.70;;;;;;5054424;28;20047;-49
2021/07/02 06:54:37;;;;;;;31.45;17.50;;;16.50;81.80;;;;;;5055793;28;20029;-51
2021/07/02 06:57:04;;;;;;;35.00;19.67;;;16.50;79.80;;;;;;5055536;28;20052;-48
2021/07/02 06:59:32;;;;;;;49.05;21.80;;;16.50;80.50;;;;;;5055784;28;20025;-49
2021/07/02 07:01:58;;;;;;;33.58;17.42;;;16.70;79.70;;;;;;5055836;28;20060;-52
2021/07/02 07:04:26;;;;;;;46.38;20.02;;;16.70;79.10;;;;;;5055553;28;20032;-52
2021/07/02 07:06:52;;;;;;;36.60;16.95;;;16.90;80.40;;;;;;5055300;28;20024;-50
2021/07/02 07:09:17;;;;;;;31.73;17.60;;;16.90;77.50;;;;;;5053695;28;20079;-47
2021/07/02 07:11:43;;;;;;;27.92;14.05;;;17.00;76.90;;;;;;5055286;28;20025;-48
2021/07/02 07:14:09;;;;;;;30.75;15.57;;;17.30;76.20;;;;;;5055828;28;20029;-47
2021/07/02 07:16:34;;;;;;;30.95;13.90;;;17.30;75.10;;;;;;5055294;28;20033;-47
2021/07/02 07:19:00;;;;;;;21.65;12.32;;;17.40;75.40;;;;;;5036361;28;20043;-47
2021/07/02 07:21:26;;;;;;;23.98;12.30;;;17.30;73.30;;;;;;5055481;28;20115;-47
2021/07/02 07:23:52;;;;;;;28.77;13.00;;;17.50;72.80;;;;;;5055673;28;20033;-48
2021/07/02 07:26:17;;;;;;;22.52;12.60;;;17.50;72.10;;;;;;5055612;28;20519;-48
2021/07/02 07:28:43;;;;;;;28.92;12.48;;;17.80;72.30;;;;;;5053725;28;20017;-48
2021/07/02 07:31:09;;;;;;;24.08;10.23;;;17.70;71.50;;;;;;5053927;28;20106;-48
2021/07/02 07:33:39;;;;;;;27.48;10.93;;;17.30;71.30;;;;;;5064667;28;20050;-53
2021/07/02 07:36:08;;;;;;;24.38;10.68;;;17.50;70.00;;;;;;5095160;28;20038;-50
2021/07/02 07:38:33;;;;;;;28.95;12.57;;;17.40;70.40;;;;;;5076667;28;20030;-50
2021/07/02 07:40:59;;;;;;;27.67;10.52;;;17.50;69.70;;;;;;5094893;28;20103;-51
2021/07/02 07:43:27;;;;;;;19.48;9.20;;;17.70;69.50;;;;;;5094435;28;20451;-51
2021/07/02 07:45:53;;;;;;;15.82;9.07;;;17.60;69.10;;;;;;5076715;28;20052;-48
2021/07/02 07:48:18;;;;;;;19.10;9.07;;;17.50;70.40;;;;;;5095206;28;20400;-49
2021/07/02 07:50:47;;;;;;;19.85;8.73;;;17.90;67.50;;;;;;5094974;28;20103;-48
2021/07/02 07:53:13;;;;;;;24.15;9.80;;;17.80;67.90;;;;;;5094976;28;20024;-47
2021/07/02 07:55:39;;;;;;;18.23;8.25;;;17.80;68.00;;;;;;5076371;28;20036;-49
2021/07/02 07:58:05;;;;;;;11.95;6.10;;;18.10;65.40;;;;;;5076321;28;20028;-48
2021/07/02 08:00:31;;;;;;;15.00;7.15;;;17.50;66.30;;;;;;5094541;28;20081;-49
2021/07/02 08:02:57;;;;;;;12.23;6.38;;;18.20;64.40;;;;;;5094651;28;20078;-48
2021/07/02 08:05:23;;;;;;;12.75;6.55;;;18.50;63.50;;;;;;5077193;28;20027;-47
2021/07/02 08:07:49;;;;;;;13.40;7.07;;;18.80;61.80;;;;;;5076798;28;20063;-50
2021/07/02 08:10:18;;;;;;;14.98;8.35;;;18.30;63.20;;;;;;5094696;28;20097;-49
2021/07/02 08:12:44;;;;;;;18.42;9.30;;;18.40;63.30;;;;;;5094849;28;20028;-50
2021/07/02 08:15:12;;;;;;;17.75;8.95;;;18.70;62.50;;;;;;5094394;28;20024;-51
2021/07/02 08:17:38;;;;;;;14.75;7.55;;;19.20;61.80;;;;;;5076346;28;20028;-48
2021/07/02 08:20:06;;;;;;;14.27;7.38;;;19.00;61.70;;;;;;5076107;28;20024;-48
2021/07/02 08:22:33;;;;;;;19.88;12.57;;;19.30;61.30;;;;;;5095101;28;20026;-50
2021/07/02 08:24:59;;;;;;;12.57;6.85;;;19.60;59.80;;;;;;5093610;28;20111;-50
2021/07/02 08:27:26;;;;;;;12.40;6.05;;;20.50;57.60;;;;;;5094487;28;20439;-48
2021/07/02 08:29:52;;;;;;;10.20;6.55;;;20.80;55.10;;;;;;5094275;28;20023;-47
2021/07/02 08:32:18;;;;;;;9.10;5.30;;;21.00;54.30;;;;;;5094742;28;20058;-48
2021/07/02 08:34:45;;;;;;;16.98;8.10;;;21.30;54.60;;;;;;5093362;28;20044;-50
2021/07/02 08:37:10;;;;;;;10.43;6.35;;;20.80;55.10;;;;;;5093973;28;20463;-49
2021/07/02 08:39:36;;;;;;;7.93;5.78;;;21.30;53.40;;;;;;5094038;28;20028;-48
2021/07/02 08:42:04;;;;;;;12.55;6.28;;;20.90;54.50;;;;;;5093938;28;20066;-49
2021/07/02 08:44:30;;;;;;;13.27;6.80;;;19.90;58.40;;;;;;5094107;28;20024;-50
2021/07/02 08:46:56;;;;;;;8.90;6.03;;;19.50;58.70;;;;;;5076317;28;20154;-49
2021/07/02 08:49:22;;;;;;;10.75;5.47;;;19.40;58.30;;;;;;5075707;28;20070;-47
2021/07/02 08:51:48;;;;;;;12.40;6.68;;;20.20;54.70;;;;;;5094089;28;20031;-50
2021/07/02 08:54:15;;;;;;;13.30;5.07;;;20.80;54.10;;;;;;5093822;28;20020;-48
2021/07/02 08:56:58;;;;;;;11.45;5.35;;;20.90;55.80;;;;;;5075362;28;20596;-50
2021/07/02 08:59:29;;;;;;;8.27;4.70;;;21.40;51.50;;;;;;5075591;28;20020;-50
2021/07/02 09:01:56;;;;;;;10.13;5.57;;;21.60;51.60;;;;;;5093493;28;20024;-48
2021/07/02 09:04:31;;;;;;;11.65;5.53;;;21.50;52.00;;;;;;5093468;28;20378;-48
2021/07/02 09:07:09;;;;;;;12.75;5.72;;;22.10;50.40;;;;;;5094106;28;20051;-48
2021/07/02 09:09:57;;;;;;;11.70;6.43;;;20.80;53.70;;;;;;5093169;28;20031;-47
2021/07/02 09:12:32;;;;;;;9.23;4.28;;;20.90;51.90;;;;;;5093474;28;20036;-50
2021/07/02 09:15:16;;;;;;;7.88;4.45;;;21.50;50.40;;;;;;5093826;28;20031;-48
2021/07/02 09:17:50;;;;;;;6.72;3.90;;;22.10;48.40;;;;;;5093581;28;20387;-48
2021/07/02 09:20:19;;;;;;;8.93;5.53;;;22.80;47.70;;;;;;5093132;28;20028;-48
2021/07/02 09:23:17;;;;;;;8.02;5.50;;;21.40;49.70;;;;;;5094107;28;20324;-53
2021/07/02 09:25:53;;;;;;;8.38;4.95;;;20.70;53.50;;;;;;5038236;28;20036;-49
2021/07/02 09:28:20;;;;;;;7.60;4.53;;;21.70;50.30;;;;;;5093216;28;20114;-49
2021/07/02 09:30:52;;;;;;;8.77;4.75;;;22.10;47.90;;;;;;5093187;28;20423;-48
2021/07/02 09:33:25;;;;;;;9.60;4.53;;;21.70;49.20;;;;;;5076038;28;20497;-49
2021/07/02 09:35:57;;;;;;;8.05;5.35;;;21.30;49.70;;;;;;5093603;28;20564;-47
2021/07/02 09:38:40;;;;;;;7.75;6.10;;;21.10;50.20;;;;;;5074790;28;20075;-47
2021/07/02 09:41:07;;;;;;;9.15;4.40;;;21.10;50.00;;;;;;5074713;28;20090;-47
2021/07/02 09:43:33;;;;;;;5.30;4.38;;;22.00;48.10;;;;;;5092523;28;20028;-50
2021/07/02 09:46:04;;;;;;;7.72;4.95;;;22.10;47.20;;;;;;5093486;28;20479;-51
2021/07/02 09:48:33;;;;;;;6.90;4.20;;;20.90;49.50;;;;;;5093218;28;20031;-49
2021/07/02 09:51:09;;;;;;;8.55;4.72;;;20.30;52.60;;;;;;5092477;28;20020;-51
2021/07/02 09:53:36;;;;;;;10.13;5.15;;;20.60;52.30;;;;;;5094114;28;20033;-50
2021/07/02 09:56:17;;;;;;;10.68;4.57;;;21.50;49.50;;;;;;5093061;28;20433;-49
2021/07/02 09:58:44;;;;;;;11.50;4.90;;;22.60;45.80;;;;;;5074969;28;20424;-49
2021/07/02 10:01:22;;;;;;;10.70;4.03;;;21.90;47.80;;;;;;5092412;28;20491;-48
2021/07/02 10:03:47;;;;;;;6.35;4.03;;;22.10;46.30;;;;;;5092768;28;20020;-49
2021/07/02 10:06:27;;;;;;;8.57;4.07;;;21.40;48.90;;;;;;5092129;28;20490;-50
2021/07/02 10:08:55;;;;;;;8.88;4.50;;;21.50;48.00;;;;;;5092344;28;20380;-49
2021/07/02 10:11:21;;;;;;;8.10;4.25;;;22.50;47.00;;;;;;5092590;28;20045;-49
2021/07/02 10:13:51;;;;;;;5.60;4.30;;;23.50;45.30;;;;;;5073988;28;20028;-49
2021/07/02 10:16:17;;;;;;;7.68;4.30;;;22.80;45.50;;;;;;5092447;28;20153;-50
2021/07/02 10:18:59;;;;;;;5.95;4.07;;;22.30;46.30;;;;;;5095243;28;20020;-49
2021/07/02 10:21:25;;;;;;;7.22;4.10;;;21.30;49.10;;;;;;5073821;28;20025;-48
2021/07/02 10:23:55;;;;;;;9.63;4.75;;;21.20;49.80;;;;;;5092371;28;20515;-48
2021/07/02 10:26:22;;;;;;;5.40;4.18;;;22.60;45.10;;;;;;5092462;28;20025;-53
2021/07/02 10:28:48;;;;;;;9.43;6.28;;;23.60;41.90;;;;;;5092312;28;20042;-50
2021/07/02 10:31:17;;;;;;;7.68;4.45;;;22.90;44.00;;;;;;5092620;28;20020;-50
2021/07/02 10:33:44;;;;;;;6.72;4.03;;;23.50;44.70;;;;;;5091315;28;20048;-53
2021/07/02 10:36:12;;;;;;;9.10;4.47;;;23.60;44.20;;;;;;5092633;28;20071;-49
2021/07/02 10:38:47;;;;;;;9.50;5.35;;;24.30;42.20;;;;;;5074051;28;20128;-52
2021/07/02 10:41:12;;;;;;;10.25;4.55;;;23.60;43.80;;;;;;5092895;28;20024;-50
2021/07/02 10:44:02;;;;;;;12.02;5.30;;;23.20;45.10;;;;;;5092726;28;20032;-50
2021/07/02 10:46:28;;;;;;;7.15;4.47;;;22.20;46.70;;;;;;5074831;28;20021;-50
2021/07/02 10:49:02;;;;;;;7.72;4.78;;;21.50;50.10;;;;;;5092276;28;20051;-48
2021/07/02 10:51:31;;;;;;;9.50;5.47;;;21.00;51.40;;;;;;5074395;28;20020;-49
2021/07/02 10:54:11;;;;;;;11.90;4.90;;;20.90;51.80;;;;;;5093086;28;20057;-47
2021/07/02 10:56:38;;;;;;;8.38;5.65;;;21.40;51.30;;;;;;5096076;28;20073;-48
2021/07/02 10:59:04;;;;;;;10.40;5.22;;;21.30;51.50;;;;;;5095886;28;20024;-48
2021/07/02 11:01:31;;;;;;;13.50;6.35;;;21.00;52.10;;;;;;5095801;28;20031;-47
2021/07/02 11:04:32;;;;;;;11.27;5.60;;;21.10;52.50;;;;;;5077436;28;20031;-48
2021/07/02 11:06:59;;;;;;;16.88;6.03;;;22.00;48.30;;;;;;5095754;28;20422;-49
2021/07/02 11:10:00;;;;;;;11.77;6.22;;;22.30;48.80;;;;;;5095693;28;20051;-48
2021/07/02 11:12:27;;;;;;;11.38;6.10;;;22.90;46.40;;;;;;5042695;28;20050;-50
2021/07/02 11:14:56;;;;;;;7.70;5.85;;;22.20;48.30;;;;;;5096421;28;20063;-49
2021/07/02 11:17:31;;;;;;;8.55;5.20;;;21.60;49.30;;;;;;5095682;28;20028;-53
2021/07/02 11:20:13;;;;;;;7.72;5.03;;;21.10;51.10;;;;;;5077919;28;20452;-53
2021/07/02 11:22:45;;;;;;;10.02;5.82;;;21.10;52.00;;;;;;5095730;28;20024;-51
2021/07/02 11:25:45;;;;;;;27.85;6.75;;;20.80;53.90;;;;;;5095512;28;20053;-52
2021/07/02 11:28:18;;;;;;;13.13;5.33;;;20.60;55.90;;;;;;5095746;28;20089;-50
2021/07/02 11:30:45;;;;;;;9.18;5.55;;;20.00;55.40;;;;;;5095958;28;20024;-50
2021/07/02 11:33:11;;;;;;;10.05;6.15;;;19.80;56.10;;;;;;5077061;28;20480;-48
2021/07/02 11:35:47;;;;;;;8.50;5.72;;;20.20;55.70;;;;;;5095836;28;20027;-48
2021/07/02 11:38:23;;;;;;;9.20;6.07;;;20.40;55.00;;;;;;5095818;28;20024;-48
2021/07/02 11:40:55;;;;;;;11.10;5.53;;;20.80;53.80;;;;;;5076912;28;20361;-49
2021/07/02 11:43:37;;;;;;;9.88;6.90;;;21.10;53.00;;;;;;5077342;28;20082;-51
2021/07/02 11:46:10;;;;;;;12.02;5.88;;;22.00;51.90;;;;;;5095471;28;20035;-49
2021/07/02 11:48:38;;;;;;;6.40;4.97;;;22.90;48.70;;;;;;5095493;28;20024;-47
2021/07/02 11:51:12;;;;;;;9.32;5.25;;;23.50;44.70;;;;;;5095170;28;20153;-49
2021/07/02 11:53:42;;;;;;;8.65;5.72;;;23.80;44.80;;;;;;5095425;28;20024;-53
2021/07/02 11:56:08;;;;;;;11.35;6.38;;;24.80;43.20;;;;;;5095083;28;20024;-48
2021/07/02 11:58:47;;;;;;;11.75;6.65;;;25.00;42.90;;;;;;5094599;28;20059;-49
2021/07/02 12:01:23;;;;;;;13.25;7.07;;;24.50;44.50;;;;;;5095031;28;20032;-51
2021/07/02 12:03:53;;;;;;;10.57;6.10;;;23.40;47.30;;;;;;5094866;28;20020;-54
2021/07/02 12:06:25;;;;;;;10.18;5.97;;;23.80;45.50;;;;;;5094377;28;20077;-49
2021/07/02 12:09:06;;;;;;;15.27;6.72;;;24.00;44.70;;;;;;5076338;28;20036;-51
2021/07/02 12:11:45;;;;;;;11.88;7.57;;;24.40;43.80;;;;;;5094331;28;20012;-53
2021/07/02 12:14:19;;;;;;;13.27;8.00;;;22.90;48.10;;;;;;5094586;28;20024;-49
2021/07/02 12:16:51;;;;;;;9.43;6.93;;;21.90;51.10;;;;;;5094357;28;20527;-52
2021/07/02 12:19:19;;;;;;;12.32;7.30;;;22.40;49.40;;;;;;5094527;28;20028;-53
2021/07/02 12:21:54;;;;;;;10.07;5.20;;;22.90;47.70;;;;;;5094101;28;20036;-49
2021/07/02 12:24:22;;;;;;;9.20;5.72;;;24.40;43.80;;;;;;5094137;28;20078;-48
2021/07/02 12:27:00;;;;;;;13.45;6.18;;;24.70;43.60;;;;;;5075774;28;20024;-48
2021/07/02 12:29:27;;;;;;;13.20;7.75;;;24.80;43.50;;;;;;5094146;28;20048;-50
2021/07/02 12:31:59;;;;;;;11.93;6.13;;;23.70;46.40;;;;;;5094471;28;20360;-51
2021/07/02 12:34:32;;;;;;;12.00;6.20;;;23.10;48.40;;;;;;5093818;28;20100;-48
2021/07/02 12:37:14;;;;;;;13.43;6.32;;;23.10;48.30;;;;;;5094097;28;20035;-52
2021/07/02 12:39:41;;;;;;;9.02;6.07;;;22.60;48.80;;;;;;5078922;28;20028;-49